Sapp, Missouri
Current Conditions -  °F | °C
As of 6:45 AM on Friday 24 Oct 2014 (Local Time) from KCOU Reporting Station
Moderate Fog Moderate Fog  
Wind Chill: 53°   Ceiling: 900
Heat Index: 53°   Visibility: 0.5mi
Dew Point: 53°   Wind: 6mph
Humidity: 100%   Direction: 220°SW
Pressure: 30.1"   Gusts: NA
Location:  38.895°N, 92.3958°W
Report Text: KCOU 241145Z AUTO 22005KT 1/2SM FG OVC009 12/12 A3010 RMK AO2 T01170117
Loading
Personal Weather Stations






























Interactive Weather Map
Tropical Storm Tracking
New forecast layout! Learn more

10-Day Weather Forecast

Advertisements
Track Severe Weather on mobile